createdAt,value
2024-05-09T00:02:24.711Z,1.50
2024-05-09T00:04:52.410Z,1.60
2024-05-09T00:07:20.087Z,1.80
2024-05-09T00:09:50.506Z,1.70
2024-05-09T00:12:18.054Z,2.00
2024-05-09T00:14:45.610Z,1.60
2024-05-09T00:17:13.262Z,1.60
2024-05-09T00:19:40.890Z,1.40
2024-05-09T00:22:08.593Z,1.50
2024-05-09T00:24:36.260Z,2.00
2024-05-09T00:27:04.437Z,1.50
2024-05-09T00:29:32.325Z,1.40
2024-05-09T00:32:00.146Z,2.00
2024-05-09T00:34:28.022Z,1.70
2024-05-09T00:36:55.673Z,1.60
2024-05-09T00:39:23.236Z,1.50
2024-05-09T00:41:50.746Z,1.70
2024-05-09T00:44:18.386Z,1.50
2024-05-09T00:46:45.922Z,2.10
2024-05-09T00:49:13.733Z,1.70
2024-05-09T00:51:41.733Z,1.90
2024-05-09T00:54:09.290Z,2.30
2024-05-09T00:56:36.885Z,2.50
2024-05-09T00:59:04.679Z,1.80
2024-05-09T01:01:32.471Z,2.00
2024-05-09T01:04:00.247Z,2.30
2024-05-09T01:06:27.845Z,1.80
2024-05-09T01:08:55.611Z,1.80
2024-05-09T01:11:23.238Z,1.90
2024-05-09T01:13:51.014Z,1.70
2024-05-09T01:16:18.725Z,1.70
2024-05-09T01:18:46.340Z,1.90
2024-05-09T01:21:14.146Z,2.10
2024-05-09T01:23:42.018Z,2.10
2024-05-09T01:26:09.646Z,1.70
2024-05-09T01:28:37.153Z,1.90
2024-05-09T01:31:04.824Z,1.90
2024-05-09T01:33:32.830Z,1.80
2024-05-09T01:36:00.726Z,1.80
2024-05-09T01:38:28.453Z,1.70
2024-05-09T01:40:56.094Z,1.90
2024-05-09T01:43:23.862Z,1.70
2024-05-09T01:45:51.470Z,1.80
2024-05-09T01:48:19.180Z,1.80
2024-05-09T01:50:46.776Z,1.70
2024-05-09T01:53:15.211Z,1.50
2024-05-09T01:55:43.655Z,1.80
2024-05-09T01:58:11.284Z,1.90
2024-05-09T02:00:42.177Z,2.10
2024-05-09T02:03:14.696Z,1.80
2024-05-09T02:05:45.724Z,1.70
2024-05-09T02:08:18.072Z,2.20
2024-05-09T02:10:47.604Z,1.80
2024-05-09T02:13:16.270Z,1.50
2024-05-09T02:15:44.109Z,1.70
2024-05-09T02:18:12.167Z,1.50
2024-05-09T02:20:41.174Z,1.60
2024-05-09T02:23:09.566Z,2.00
2024-05-09T02:25:37.408Z,1.80
2024-05-09T02:28:05.586Z,1.70
2024-05-09T02:30:39.282Z,1.90
2024-05-09T02:33:11.447Z,2.10
2024-05-09T02:35:41.608Z,2.00
2024-05-09T02:38:09.537Z,1.90
2024-05-09T02:40:39.206Z,1.80
2024-05-09T02:43:08.863Z,2.20
2024-05-09T02:45:38.353Z,2.20
2024-05-09T02:48:06.978Z,2.20
2024-05-09T02:50:38.987Z,2.40
2024-05-09T02:53:08.246Z,2.10
2024-05-09T02:55:36.874Z,2.10
2024-05-09T02:58:04.858Z,2.60
2024-05-09T03:00:39.104Z,2.50
2024-05-09T03:03:12.396Z,1.80
2024-05-09T03:05:43.535Z,1.80
2024-05-09T03:08:11.433Z,1.80
2024-05-09T03:10:39.891Z,2.00
2024-05-09T03:13:12.253Z,2.10
2024-05-09T03:15:40.643Z,1.80
2024-05-09T03:18:08.483Z,1.70
2024-05-09T03:20:37.054Z,2.20
2024-05-09T03:23:06.636Z,2.30
2024-05-09T03:25:34.611Z,2.00
2024-05-09T03:28:02.289Z,2.20
2024-05-09T03:30:39.074Z,2.50
2024-05-09T03:33:11.355Z,2.60
2024-05-09T03:38:06.867Z,2.00
2024-05-09T03:40:34.469Z,2.40
2024-05-09T03:43:02.150Z,2.30
2024-05-09T03:45:29.692Z,2.30
2024-05-09T03:47:57.585Z,1.90
2024-05-09T03:50:30.396Z,2.50
2024-05-09T03:53:02.811Z,2.30
2024-05-09T03:55:30.706Z,2.60
2024-05-09T03:57:58.332Z,2.10
2024-05-09T04:00:34.402Z,2.00
2024-05-09T04:03:07.805Z,2.20
2024-05-09T04:05:39.347Z,2.10
2024-05-09T04:10:35.572Z,2.20
2024-05-09T04:13:04.055Z,2.40
2024-05-09T04:15:32.319Z,2.10
2024-05-09T04:18:01.037Z,1.70
2024-05-09T04:23:10.859Z,3.20
2024-05-09T04:25:41.163Z,2.60
2024-05-09T04:28:08.716Z,1.90
2024-05-09T04:30:39.603Z,2.10
2024-05-09T04:33:13.720Z,2.00
2024-05-09T04:35:43.345Z,2.50
2024-05-09T04:38:12.646Z,2.50
2024-05-09T04:40:40.275Z,2.50
2024-05-09T04:43:13.978Z,2.10
2024-05-09T04:45:41.596Z,2.30
2024-05-09T04:48:09.480Z,2.10
2024-05-09T04:50:39.255Z,2.10
2024-05-09T04:53:09.125Z,2.60
2024-05-09T04:55:38.781Z,2.20
2024-05-09T04:58:09.838Z,2.00
2024-05-09T05:00:41.338Z,2.10
2024-05-09T05:03:12.794Z,2.70
2024-05-09T05:05:44.483Z,2.60
2024-05-09T05:08:17.539Z,2.60
2024-05-09T05:10:46.882Z,2.60
2024-05-09T05:13:24.796Z,2.10
2024-05-09T05:15:55.171Z,2.80
2024-05-09T05:18:23.253Z,2.20
2024-05-09T05:20:51.312Z,2.70
2024-05-09T05:23:19.600Z,2.20
2024-05-09T05:25:52.526Z,2.30
2024-05-09T05:28:20.359Z,2.30
2024-05-09T05:30:47.955Z,2.10
2024-05-09T05:33:17.752Z,2.00
2024-05-09T05:35:45.399Z,2.50
2024-05-09T05:38:13.169Z,2.00
2024-05-09T05:40:41.274Z,1.90
2024-05-09T05:43:10.042Z,2.00
2024-05-09T05:45:38.623Z,2.00
2024-05-09T05:48:07.403Z,1.80
2024-05-09T05:50:37.620Z,2.00
2024-05-09T05:53:06.810Z,2.00
2024-05-09T05:55:35.190Z,2.20
2024-05-09T05:58:02.882Z,2.20
2024-05-09T06:00:37.819Z,2.70
2024-05-09T06:03:11.811Z,2.00
2024-05-09T06:05:40.705Z,1.70
2024-05-09T06:08:09.239Z,1.60
2024-05-09T06:10:39.880Z,1.90
2024-05-09T06:13:12.167Z,2.10
2024-05-09T06:15:40.184Z,2.00
2024-05-09T06:18:08.206Z,1.90
2024-05-09T06:20:38.031Z,2.10
2024-05-09T06:23:06.772Z,2.10
2024-05-09T06:25:35.604Z,1.80
2024-05-09T06:28:04.360Z,2.50
2024-05-09T06:30:38.624Z,2.40
2024-05-09T06:33:10.607Z,1.80
2024-05-09T06:35:39.936Z,2.00
2024-05-09T06:38:10.772Z,2.10
2024-05-09T06:40:40.816Z,2.10
2024-05-09T06:43:11.246Z,2.20
2024-05-09T06:45:39.364Z,2.30
2024-05-09T06:48:08.105Z,2.00
2024-05-09T06:50:38.199Z,1.80
2024-05-09T06:53:07.792Z,1.90
2024-05-09T06:55:36.028Z,2.10
2024-05-09T06:58:06.951Z,2.10
2024-05-09T07:00:39.375Z,1.90
2024-05-09T07:03:10.792Z,1.70
2024-05-09T07:05:39.693Z,2.10
2024-05-09T07:08:07.535Z,1.60
2024-05-09T07:10:36.370Z,2.20
2024-05-09T07:13:11.887Z,2.30
2024-05-09T07:15:40.190Z,1.70
2024-05-09T07:18:11.512Z,1.90
2024-05-09T07:20:40.113Z,1.90
2024-05-09T07:23:11.490Z,1.90
2024-05-09T07:25:39.821Z,1.80
2024-05-09T07:28:17.894Z,1.90
2024-05-09T07:30:45.544Z,1.70
2024-05-09T07:33:17.474Z,1.60
2024-05-09T07:35:45.305Z,1.80
2024-05-09T07:38:13.087Z,1.60
2024-05-09T07:40:41.426Z,1.90
2024-05-09T07:43:11.317Z,1.70
2024-05-09T07:45:48.648Z,1.70
2024-05-09T07:52:37.632Z,1.50
2024-05-09T07:53:47.909Z,2.40
2024-05-09T07:56:21.051Z,1.40
2024-05-09T07:58:50.776Z,2.00
2024-05-09T08:01:19.369Z,1.30
2024-05-09T08:03:50.013Z,1.60
2024-05-09T08:06:17.743Z,1.50
2024-05-09T08:08:47.068Z,1.50
2024-05-09T08:11:14.746Z,1.40
2024-05-09T08:13:42.227Z,1.60
2024-05-09T08:16:09.799Z,1.60
2024-05-09T08:18:37.527Z,1.30
2024-05-09T08:21:05.371Z,1.60
2024-05-09T08:23:32.888Z,1.60
2024-05-09T08:26:00.367Z,1.90
2024-05-09T08:28:28.320Z,1.20
2024-05-09T08:30:56.723Z,1.60
2024-05-09T08:33:24.577Z,2.00
2024-05-09T08:35:54.479Z,1.60
2024-05-09T08:38:22.119Z,1.50
2024-05-09T08:40:50.376Z,1.90
2024-05-09T08:43:19.269Z,1.40
2024-05-09T08:45:47.211Z,1.70
2024-05-09T08:48:16.083Z,1.10
2024-05-09T08:50:45.395Z,1.50
2024-05-09T08:53:14.985Z,1.20
2024-05-09T08:55:44.024Z,1.70
2024-05-09T08:58:16.734Z,1.70
2024-05-09T09:00:46.010Z,1.60
2024-05-09T09:03:18.513Z,1.30
2024-05-09T09:05:50.507Z,1.60
2024-05-09T09:08:18.113Z,1.60
2024-05-09T09:10:46.155Z,1.40
2024-05-09T09:13:13.719Z,1.40
2024-05-09T09:15:50.670Z,1.90
2024-05-09T09:18:18.851Z,1.80
2024-05-09T09:20:47.572Z,2.20
2024-05-09T09:23:15.294Z,1.70
2024-05-09T09:25:43.000Z,1.60
2024-05-09T09:28:12.122Z,1.80
2024-05-09T09:30:40.703Z,1.50
2024-05-09T09:33:08.816Z,1.40
2024-05-09T09:35:36.379Z,1.70
2024-05-09T09:38:05.648Z,1.60
2024-05-09T09:40:37.286Z,2.00
2024-05-09T09:43:11.855Z,1.50
2024-05-09T09:45:39.779Z,1.50
2024-05-09T09:48:07.836Z,1.70
2024-05-09T09:50:35.677Z,1.90
2024-05-09T09:53:03.869Z,1.60
2024-05-09T09:55:32.273Z,1.90
2024-05-09T09:58:00.027Z,1.40
2024-05-09T10:00:32.780Z,1.60
2024-05-09T10:03:02.049Z,1.50
2024-05-09T10:05:30.284Z,1.90
2024-05-09T10:10:32.176Z,1.90
2024-05-09T10:13:07.404Z,1.50
2024-05-09T10:15:50.868Z,1.60
2024-05-09T10:18:28.025Z,1.70
2024-05-09T10:20:59.188Z,1.40
2024-05-09T10:23:28.488Z,1.40
2024-05-09T10:25:57.009Z,1.60
2024-05-09T10:28:28.256Z,1.20
2024-05-09T10:31:06.642Z,1.40
2024-05-09T10:33:38.556Z,1.70
2024-05-09T10:36:32.748Z,1.60
2024-05-09T10:39:00.425Z,1.80
2024-05-09T10:41:28.348Z,1.60
2024-05-09T10:43:55.966Z,1.60
2024-05-09T10:46:23.650Z,1.50
2024-05-09T10:48:52.221Z,1.70
2024-05-09T10:53:47.780Z,1.50
2024-05-09T10:56:15.554Z,1.60
2024-05-09T10:58:43.251Z,1.40
2024-05-09T11:01:11.503Z,1.30
2024-05-09T11:03:39.787Z,1.80
2024-05-09T11:08:36.962Z,1.60
2024-05-09T11:11:06.499Z,1.80
2024-05-09T11:13:34.886Z,1.60
2024-05-09T11:16:03.325Z,1.50
2024-05-09T11:18:35.127Z,1.70
2024-05-09T11:21:11.603Z,1.60
2024-05-09T11:23:39.150Z,1.80
2024-05-09T11:26:06.762Z,1.90
2024-05-09T11:28:34.451Z,1.60
2024-05-09T11:31:09.970Z,2.00
2024-05-09T11:33:42.490Z,1.60
2024-05-09T11:36:10.331Z,1.60
2024-05-09T11:38:37.880Z,1.70
2024-05-09T11:41:05.872Z,1.50
2024-05-09T11:43:33.679Z,1.70
2024-05-09T11:46:02.415Z,1.90
2024-05-09T11:48:30.651Z,1.60
2024-05-09T11:50:58.418Z,2.00
2024-05-09T11:53:26.032Z,1.40
2024-05-09T11:55:53.577Z,1.50
2024-05-09T11:58:22.473Z,2.00
2024-05-09T12:00:50.334Z,1.50
2024-05-09T12:03:18.168Z,1.70
2024-05-09T12:05:45.983Z,1.40
2024-05-09T12:08:13.967Z,1.40
2024-05-09T12:10:41.898Z,1.40
2024-05-09T12:13:09.638Z,1.20
2024-05-09T12:15:38.275Z,1.40
2024-05-09T12:18:07.574Z,1.60
2024-05-09T12:20:38.764Z,1.40
2024-05-09T12:23:08.837Z,1.70
2024-05-09T12:25:38.144Z,1.60
2024-05-09T12:30:38.269Z,1.40
2024-05-09T12:33:12.458Z,1.20
2024-05-09T12:35:44.032Z,1.60
2024-05-09T12:38:14.486Z,1.40
2024-05-09T12:40:42.466Z,1.60
2024-05-09T12:43:11.389Z,1.50
2024-05-09T12:45:40.046Z,1.50
2024-05-09T12:48:10.825Z,1.40
2024-05-09T12:50:38.678Z,1.00
2024-05-09T12:53:06.253Z,1.20
2024-05-09T12:55:44.094Z,1.40
2024-05-09T12:58:17.670Z,1.50
2024-05-09T13:00:45.547Z,1.40
2024-05-09T13:05:41.955Z,1.50
2024-05-09T13:08:09.898Z,1.60
2024-05-09T13:10:37.489Z,1.40
2024-05-09T13:13:05.229Z,1.40
2024-05-09T13:15:34.304Z,1.70
2024-05-09T13:18:03.651Z,1.40
2024-05-09T13:20:34.518Z,1.60
2024-05-09T13:23:04.663Z,1.50
2024-05-09T13:25:34.194Z,1.20
2024-05-09T13:28:02.814Z,1.30
2024-05-09T13:30:38.822Z,1.30
2024-05-09T13:33:11.241Z,2.00
2024-05-09T13:35:47.654Z,1.60
2024-05-09T13:38:19.071Z,1.50
2024-05-09T13:40:47.312Z,2.50
2024-05-09T13:43:15.579Z,1.80
2024-05-09T13:45:43.293Z,1.60
2024-05-09T13:48:11.140Z,1.50
2024-05-09T13:50:39.163Z,1.40
2024-05-09T13:53:08.191Z,1.30
2024-05-09T13:55:39.990Z,1.40
2024-05-09T13:58:08.533Z,1.30
2024-05-09T14:00:46.357Z,1.20
2024-05-09T14:03:18.430Z,1.50
2024-05-09T14:06:27.696Z,1.30
2024-05-09T14:08:55.310Z,1.30
2024-05-09T14:11:23.368Z,1.40
2024-05-09T14:13:50.919Z,1.10
2024-05-09T14:16:18.566Z,1.30
2024-05-09T14:18:46.318Z,1.30
2024-05-09T14:21:14.026Z,1.10
2024-05-09T14:23:41.707Z,1.30
2024-05-09T14:26:09.203Z,1.40
2024-05-09T14:28:36.917Z,1.50
2024-05-09T14:31:04.657Z,1.50
2024-05-09T14:33:32.682Z,1.50
2024-05-09T14:36:00.418Z,1.30
2024-05-09T14:38:28.115Z,1.30
2024-05-09T14:40:56.011Z,1.30
2024-05-09T14:43:23.731Z,1.30
2024-05-09T14:45:51.547Z,1.30
2024-05-09T14:48:19.946Z,1.30
2024-05-09T14:50:48.010Z,1.30
2024-05-09T14:53:15.678Z,1.40
2024-05-09T14:55:43.963Z,1.70
2024-05-09T14:58:12.677Z,1.00
2024-05-09T15:00:45.847Z,1.80
2024-05-09T15:03:21.358Z,1.50
2024-05-09T15:05:50.347Z,1.30
2024-05-09T15:08:19.294Z,1.00
2024-05-09T15:10:49.035Z,1.70
2024-05-09T15:13:19.223Z,2.00
2024-05-09T15:15:47.088Z,1.00
2024-05-09T15:18:14.804Z,1.20
2024-05-09T15:20:45.704Z,1.40
2024-05-09T15:23:13.711Z,1.30
2024-05-09T15:25:41.356Z,1.50
2024-05-09T15:28:09.597Z,1.20
2024-05-09T15:30:37.865Z,1.60
2024-05-09T15:33:07.117Z,1.30
2024-05-09T15:35:36.041Z,1.30
2024-05-09T15:38:04.821Z,1.40
2024-05-09T15:40:39.128Z,1.40
2024-05-09T15:43:09.767Z,1.50
2024-05-09T15:45:39.987Z,1.20
2024-05-09T15:48:08.754Z,1.90
2024-05-09T15:50:40.607Z,1.70
2024-05-09T15:53:10.968Z,1.40
2024-05-09T15:55:39.590Z,1.40
2024-05-09T15:58:07.736Z,1.30
2024-05-09T16:00:39.639Z,0.90
2024-05-09T16:03:10.796Z,1.00
2024-05-09T16:05:39.625Z,1.50
2024-05-09T16:08:07.577Z,1.50
2024-05-09T16:10:36.127Z,0.90
2024-05-09T16:13:04.284Z,1.10
2024-05-09T16:15:32.319Z,1.20
2024-05-09T16:18:00.333Z,1.30
2024-05-09T16:20:37.237Z,0.90
2024-05-09T16:23:08.754Z,1.00
2024-05-09T16:25:37.094Z,1.10
2024-05-09T16:28:08.598Z,1.30
2024-05-09T16:30:39.616Z,1.40
2024-05-09T16:33:09.287Z,1.30
2024-05-09T16:38:05.727Z,1.10
2024-05-09T16:40:38.118Z,0.90
2024-05-09T16:43:09.479Z,1.30
2024-05-09T16:45:43.231Z,1.50
2024-05-09T16:48:11.282Z,0.80
2024-05-09T16:50:39.086Z,1.10
2024-05-09T16:53:07.225Z,1.50
2024-05-09T16:55:35.732Z,1.20
2024-05-09T16:58:04.460Z,1.00
2024-05-09T17:00:40.210Z,0.90
2024-05-09T17:03:14.262Z,0.90
2024-05-09T17:05:45.239Z,0.90
2024-05-09T17:08:15.514Z,1.10
2024-05-09T17:10:55.506Z,1.00
2024-05-09T17:13:23.725Z,1.40
2024-05-09T17:15:51.707Z,1.20
2024-05-09T17:18:19.472Z,0.90
2024-05-09T17:20:47.416Z,1.10
2024-05-09T17:23:15.146Z,1.10
2024-05-09T17:25:43.032Z,0.90
2024-05-09T17:28:11.222Z,1.00
2024-05-09T17:30:41.438Z,1.20
2024-05-09T17:33:11.593Z,1.00
2024-05-09T17:35:40.360Z,1.40
2024-05-09T17:38:08.106Z,1.00
2024-05-09T17:40:37.788Z,1.30
2024-05-09T17:43:09.281Z,1.20
2024-05-09T17:45:40.572Z,1.50
2024-05-09T17:48:10.790Z,1.40
2024-05-09T17:50:39.940Z,0.90
2024-05-09T17:53:07.945Z,1.00
2024-05-09T17:55:36.138Z,0.90
2024-05-09T17:58:04.758Z,1.00
2024-05-09T18:00:38.922Z,1.00
2024-05-09T18:03:13.707Z,0.90
2024-05-09T18:05:44.575Z,1.30
2024-05-09T18:08:13.375Z,1.00
2024-05-09T18:10:41.726Z,0.90
2024-05-09T18:13:10.468Z,1.20
2024-05-09T18:15:38.945Z,0.90
2024-05-09T18:18:07.513Z,1.10
2024-05-09T18:20:42.915Z,1.60
2024-05-09T18:23:14.823Z,1.20
2024-05-09T18:25:43.706Z,1.50
2024-05-09T18:28:11.458Z,2.20
2024-05-09T18:30:39.821Z,1.40
2024-05-09T18:33:09.596Z,1.60
2024-05-09T18:35:37.366Z,1.40
2024-05-09T18:38:05.494Z,1.60
2024-05-09T18:40:36.584Z,1.30
2024-05-09T18:43:07.584Z,1.40
2024-05-09T18:45:37.688Z,1.50
2024-05-09T18:48:07.418Z,1.50
2024-05-09T18:50:38.958Z,1.60
2024-05-09T18:53:12.554Z,1.40
2024-05-09T18:55:41.625Z,1.80
2024-05-09T18:58:09.536Z,1.70
2024-05-09T19:00:40.030Z,1.80
2024-05-09T19:03:12.839Z,1.70
2024-05-09T19:05:43.859Z,2.00
2024-05-09T19:08:13.185Z,1.40
2024-05-09T19:10:41.199Z,1.30
2024-05-09T19:13:12.214Z,1.40
2024-05-09T19:15:42.546Z,1.60
2024-05-09T19:18:11.998Z,1.60
2024-05-09T19:20:39.986Z,2.00
2024-05-09T19:23:07.903Z,1.90
2024-05-09T19:25:36.125Z,3.00
2024-05-09T19:28:05.020Z,4.60
2024-05-09T19:30:38.927Z,3.20
2024-05-09T19:33:11.930Z,3.50
2024-05-09T19:35:41.472Z,2.80
2024-05-09T19:38:09.101Z,3.10
2024-05-09T19:40:36.954Z,2.90
2024-05-09T19:43:05.966Z,2.70
2024-05-09T19:45:35.162Z,2.10
2024-05-09T19:48:04.872Z,2.50
2024-05-09T19:50:40.951Z,3.00
2024-05-09T19:53:12.612Z,2.20
2024-05-09T19:55:41.251Z,2.10
2024-05-09T19:58:09.482Z,2.60
2024-05-09T20:00:39.610Z,2.30
2024-05-09T20:03:13.926Z,2.10
2024-05-09T20:05:43.559Z,2.30
2024-05-09T20:10:39.083Z,2.00
2024-05-09T20:13:08.168Z,2.20
2024-05-09T20:15:37.384Z,2.60
2024-05-09T20:18:06.170Z,2.50
2024-05-09T20:20:39.070Z,3.20
2024-05-09T20:23:10.370Z,3.50
2024-05-09T20:25:38.030Z,3.00
2024-05-09T20:28:06.033Z,3.20
2024-05-09T20:30:34.777Z,3.20
2024-05-09T20:33:04.954Z,3.40
2024-05-09T20:35:34.102Z,3.20
2024-05-09T20:38:03.002Z,3.10
2024-05-09T20:40:35.522Z,3.30
2024-05-09T20:43:07.065Z,2.60
2024-05-09T20:48:03.264Z,3.10
2024-05-09T20:50:37.883Z,3.10
2024-05-09T20:53:12.692Z,2.60
2024-05-09T20:55:41.588Z,3.00
2024-05-09T20:58:09.855Z,3.00
2024-05-09T21:00:41.557Z,3.40
2024-05-09T21:03:13.142Z,3.70
2024-05-09T21:05:42.081Z,3.60
2024-05-09T21:08:09.877Z,3.30
2024-05-09T21:10:37.945Z,3.20
2024-05-09T21:13:06.817Z,3.40
2024-05-09T21:18:04.339Z,3.50
2024-05-09T21:20:33.998Z,3.50
2024-05-09T21:23:02.264Z,3.20
2024-05-09T21:25:30.698Z,3.50
2024-05-09T21:27:58.345Z,3.40
2024-05-09T21:30:33.080Z,3.10
2024-05-09T21:33:09.281Z,3.60
2024-05-09T21:35:38.141Z,3.50
2024-05-09T21:38:06.829Z,3.10
2024-05-09T21:40:36.217Z,3.50
2024-05-09T21:43:05.825Z,3.20
2024-05-09T21:45:34.021Z,3.40
2024-05-09T21:48:05.597Z,3.30
2024-05-09T21:50:39.691Z,3.80
2024-05-09T21:53:10.709Z,3.80
2024-05-09T21:58:06.191Z,3.30
2024-05-09T22:00:37.988Z,3.30
2024-05-09T22:03:07.483Z,4.00
2024-05-09T22:05:37.115Z,3.20
2024-05-09T22:08:05.405Z,5.60
2024-05-09T22:10:35.585Z,4.00
2024-05-09T22:13:05.862Z,3.90
2024-05-09T22:15:34.990Z,4.30
2024-05-09T22:18:02.792Z,4.30
2024-05-09T22:20:36.819Z,4.70
2024-05-09T22:23:07.663Z,4.40
2024-05-09T22:25:36.315Z,4.50
2024-05-09T22:28:04.436Z,4.40
2024-05-09T22:30:37.054Z,4.50
2024-05-09T22:33:08.280Z,4.30
2024-05-09T22:35:36.864Z,5.20
2024-05-09T22:38:04.553Z,5.00
2024-05-09T22:40:42.392Z,4.50
2024-05-09T22:43:20.674Z,4.70
2024-05-09T22:45:50.123Z,4.50
2024-05-09T22:48:18.407Z,4.70
2024-05-09T22:50:46.049Z,5.40
2024-05-09T22:53:13.560Z,4.70
2024-05-09T22:55:41.593Z,4.50
2024-05-09T22:58:09.323Z,4.50
2024-05-09T23:00:37.103Z,4.50
2024-05-09T23:03:05.096Z,4.90
2024-05-09T23:05:33.120Z,4.60
2024-05-09T23:08:01.735Z,4.70
2024-05-09T23:10:35.571Z,4.30
2024-05-09T23:13:06.367Z,4.50
2024-05-09T23:15:34.530Z,4.70
2024-05-09T23:18:02.393Z,4.50
2024-05-09T23:20:36.884Z,4.30
2024-05-09T23:23:07.598Z,4.20
2024-05-09T23:25:36.142Z,4.20
2024-05-09T23:28:04.156Z,4.40
2024-05-09T23:30:37.679Z,5.30
2024-05-09T23:33:09.844Z,4.50
2024-05-09T23:35:38.532Z,4.40
2024-05-09T23:38:06.202Z,4.50
2024-05-09T23:40:38.736Z,4.50
2024-05-09T23:43:09.763Z,4.60
2024-05-09T23:45:37.876Z,4.60
2024-05-09T23:48:06.037Z,4.60
2024-05-09T23:50:36.901Z,5.10
2024-05-09T23:53:07.758Z,5.90
2024-05-09T23:55:36.884Z,5.90
2024-05-09T23:58:05.443Z,4.80
